createdAt,value
2018-02-13T00:02:21.246Z,99817.22
2018-02-13T00:04:48.852Z,99818.07
2018-02-13T00:07:16.427Z,99827.63
2018-02-13T00:09:44.009Z,99826.97
2018-02-13T00:12:11.621Z,99827.07
2018-02-13T00:14:39.209Z,99827.98
2018-02-13T00:17:06.777Z,99826.39
2018-02-13T00:19:34.429Z,99825.81
2018-02-13T00:22:02.000Z,99825.07
2018-02-13T00:24:29.566Z,99821.84
2018-02-13T00:26:57.198Z,99826.92
2018-02-13T00:29:24.760Z,99819.58
2018-02-13T00:31:52.335Z,99817.84
2018-02-13T00:34:20.046Z,99816.78
2018-02-13T00:36:47.628Z,99814.23
2018-02-13T00:39:15.192Z,99817.28
2018-02-13T00:41:42.799Z,99817.82
2018-02-13T00:44:10.384Z,99826.20
2018-02-13T00:46:37.956Z,99823.09
2018-02-13T00:49:05.560Z,99836.52
2018-02-13T00:51:33.178Z,99840.20
2018-02-13T00:54:00.779Z,99834.23
2018-02-13T00:56:28.371Z,99831.49
2018-02-13T00:58:55.924Z,99830.09
2018-02-13T01:01:23.508Z,99826.63
2018-02-13T01:03:51.105Z,99823.75
2018-02-13T01:06:18.679Z,99824.24
2018-02-13T01:08:46.238Z,99828.43
2018-02-13T01:11:13.855Z,99827.14
2018-02-13T01:13:41.445Z,99829.20
2018-02-13T01:16:09.025Z,99833.20
2018-02-13T01:18:36.637Z,99837.44
2018-02-13T01:21:04.209Z,99835.83
2018-02-13T01:23:31.779Z,99835.98
2018-02-13T01:25:59.379Z,99835.75
2018-02-13T01:28:26.946Z,99835.00
2018-02-13T01:30:54.495Z,99829.97
2018-02-13T01:33:22.137Z,99822.36
2018-02-13T01:35:49.713Z,99829.34
2018-02-13T01:38:17.293Z,99827.20
2018-02-13T01:40:44.903Z,99822.54
2018-02-13T01:43:12.467Z,99826.74
2018-02-13T01:45:40.038Z,99832.81
2018-02-13T01:48:07.649Z,99838.83
2018-02-13T01:50:35.219Z,99840.39
2018-02-13T01:53:02.781Z,99844.24
2018-02-13T01:55:30.379Z,99842.36
2018-02-13T01:57:57.955Z,99846.00
2018-02-13T02:00:25.520Z,99839.47
2018-02-13T02:02:53.135Z,99836.48
2018-02-13T02:05:20.699Z,99840.69
2018-02-13T02:07:48.256Z,99840.13
2018-02-13T02:10:15.860Z,99841.18
2018-02-13T02:12:43.420Z,99838.63
2018-02-13T02:15:11.008Z,99839.39
2018-02-13T02:17:38.614Z,99843.25
2018-02-13T02:20:06.176Z,99847.95
2018-02-13T02:22:33.746Z,99843.77
2018-02-13T02:25:01.374Z,99843.02
2018-02-13T02:27:28.940Z,99841.18
2018-02-13T02:29:56.517Z,99844.13
2018-02-13T02:32:24.129Z,99839.14
2018-02-13T02:34:51.694Z,99843.06
2018-02-13T02:37:19.278Z,99838.80
2018-02-13T02:39:46.895Z,99836.19
2018-02-13T02:42:14.472Z,99837.20
2018-02-13T02:44:42.057Z,99834.02
2018-02-13T02:47:09.666Z,99834.63
2018-02-13T02:49:37.231Z,99844.47
2018-02-13T02:52:04.809Z,99843.95
2018-02-13T02:54:32.407Z,99847.64
2018-02-13T02:56:59.985Z,99845.91
2018-02-13T02:59:27.569Z,99830.59
2018-02-13T03:01:55.178Z,99852.31
2018-02-13T03:04:22.738Z,99854.91
2018-02-13T03:06:50.408Z,99855.98
2018-02-13T03:09:18.019Z,99860.92
2018-02-13T03:11:45.638Z,99863.85
2018-02-13T03:14:13.198Z,99860.67
2018-02-13T03:16:40.807Z,99854.88
2018-02-13T03:19:08.389Z,99853.56
2018-02-13T03:21:35.959Z,99857.18
2018-02-13T03:24:03.563Z,99857.39
2018-02-13T03:26:31.138Z,99856.59
2018-02-13T03:28:58.695Z,99855.89
2018-02-13T03:31:26.288Z,99854.05
2018-02-13T03:33:53.901Z,99860.55
2018-02-13T03:36:21.463Z,99861.89
2018-02-13T03:38:49.068Z,99863.26
2018-02-13T03:41:16.647Z,99855.89
2018-02-13T03:43:44.207Z,99858.08
2018-02-13T03:46:11.810Z,99860.99
2018-02-13T03:48:39.379Z,99868.56
2018-02-13T03:51:06.964Z,99865.83
2018-02-13T03:53:34.573Z,99867.13
2018-02-13T03:56:02.160Z,99865.34
2018-02-13T03:58:29.756Z,99872.64
2018-02-13T04:00:57.378Z,99872.48
2018-02-13T04:03:25.077Z,99866.47
2018-02-13T04:05:52.666Z,99870.10
2018-02-13T04:08:20.296Z,99869.37
2018-02-13T04:10:47.876Z,99865.00
2018-02-13T04:13:15.445Z,99864.98
2018-02-13T04:15:43.101Z,99868.03
2018-02-13T04:18:10.679Z,99866.09
2018-02-13T04:20:38.243Z,99862.37
2018-02-13T04:23:05.853Z,99864.52
2018-02-13T04:25:33.422Z,99878.01
2018-02-13T04:28:00.975Z,99883.35
2018-02-13T04:30:28.584Z,99884.44
2018-02-13T04:32:56.171Z,99884.35
2018-02-13T04:35:23.738Z,99887.47
2018-02-13T04:37:51.370Z,99886.72
2018-02-13T04:40:18.942Z,99890.19
2018-02-13T04:42:46.524Z,99892.01
2018-02-13T04:45:14.136Z,99886.48
2018-02-13T04:47:41.721Z,99884.26
2018-02-13T04:50:09.278Z,99886.19
2018-02-13T04:52:36.900Z,99881.04
2018-02-13T04:55:04.472Z,99887.55
2018-02-13T04:57:32.076Z,99876.53
2018-02-13T04:59:59.690Z,99875.88
2018-02-13T05:02:27.264Z,99876.86
2018-02-13T05:04:54.837Z,99873.42
2018-02-13T05:07:22.457Z,99868.23
2018-02-13T05:09:50.036Z,99868.45
2018-02-13T05:12:17.623Z,99870.36
2018-02-13T05:14:45.343Z,99876.67
2018-02-13T05:17:12.931Z,99878.01
2018-02-13T05:19:40.550Z,99879.11
2018-02-13T05:22:08.172Z,99874.05
2018-02-13T05:24:35.764Z,99877.87
2018-02-13T05:27:03.391Z,99882.80
2018-02-13T05:29:31.010Z,99889.92
2018-02-13T05:31:58.602Z,99891.93
2018-02-13T05:34:26.197Z,99878.94
2018-02-13T05:36:53.823Z,99880.80
2018-02-13T05:39:21.419Z,99872.83
2018-02-13T05:41:49.032Z,99867.82
2018-02-13T05:44:16.640Z,99855.05
2018-02-13T05:46:44.340Z,99864.45
2018-02-13T05:49:11.914Z,99864.01
2018-02-13T05:51:39.678Z,99873.34
2018-02-13T05:54:07.434Z,99875.03
2018-02-13T05:56:35.026Z,99876.70
2018-02-13T05:59:02.652Z,99869.88
2018-02-13T06:01:30.239Z,99871.41
2018-02-13T06:03:57.822Z,99872.23
2018-02-13T06:06:25.443Z,99873.55
2018-02-13T06:08:53.012Z,99866.95
2018-02-13T06:11:20.597Z,99858.55
2018-02-13T06:13:48.204Z,99861.75
2018-02-13T06:16:15.769Z,99859.41
2018-02-13T06:18:43.351Z,99863.09
2018-02-13T06:21:10.963Z,99858.06
2018-02-13T06:23:38.540Z,99854.01
2018-02-13T06:26:06.111Z,99860.75
2018-02-13T06:28:33.738Z,99868.67
2018-02-13T06:31:01.333Z,99873.02
2018-02-13T06:33:28.910Z,99885.96
2018-02-13T06:35:56.515Z,99885.50
2018-02-13T06:38:24.089Z,99882.13
2018-02-13T06:40:51.664Z,99887.58
2018-02-13T06:43:19.280Z,99887.84
2018-02-13T06:45:46.852Z,99882.81
2018-02-13T06:48:14.444Z,99879.11
2018-02-13T06:50:42.051Z,99879.53
2018-02-13T06:53:09.641Z,99877.30
2018-02-13T06:55:37.212Z,99880.27
2018-02-13T06:58:04.823Z,99877.13
2018-02-13T07:00:32.427Z,99879.28
2018-02-13T07:03:00.020Z,99869.82
2018-02-13T07:05:27.693Z,99856.01
2018-02-13T07:07:55.279Z,99858.03
2018-02-13T07:10:22.842Z,99858.38
2018-02-13T07:12:50.585Z,99858.13
2018-02-13T07:15:18.155Z,99852.73
2018-02-13T07:17:45.727Z,99851.86
2018-02-13T07:20:13.339Z,99851.48
2018-02-13T07:22:40.949Z,99848.50
2018-02-13T07:25:08.524Z,99846.32
2018-02-13T07:27:36.137Z,99837.20
2018-02-13T07:30:03.697Z,99835.89
2018-02-13T07:32:31.275Z,99835.90
2018-02-13T07:34:58.888Z,99829.10
2018-02-13T07:37:26.454Z,99833.84
2018-02-13T07:39:54.038Z,99835.05
2018-02-13T07:42:21.660Z,99841.45
2018-02-13T07:44:49.227Z,99853.64
2018-02-13T07:47:16.821Z,99846.60
2018-02-13T07:49:44.481Z,99842.57
2018-02-13T07:52:12.070Z,99844.88
2018-02-13T07:54:39.660Z,99841.91
2018-02-13T07:57:07.281Z,99827.11
2018-02-13T07:59:34.881Z,99822.87
2018-02-13T08:02:02.477Z,99818.87
2018-02-13T08:04:30.109Z,99826.70
2018-02-13T08:06:57.691Z,99823.09
2018-02-13T08:09:25.313Z,99821.47
2018-02-13T08:11:52.930Z,99818.74
2018-02-13T08:14:20.525Z,99815.58
2018-02-13T08:16:48.114Z,99809.58
2018-02-13T08:19:15.929Z,99778.62
2018-02-13T08:21:43.531Z,99788.50
2018-02-13T08:24:11.132Z,99790.73
2018-02-13T08:26:38.806Z,99785.37
2018-02-13T08:29:06.401Z,99792.07
2018-02-13T08:31:33.981Z,99787.87
2018-02-13T08:34:01.606Z,99791.07
2018-02-13T08:36:29.202Z,99793.58
2018-02-13T08:38:56.782Z,99796.66
2018-02-13T08:41:24.403Z,99796.78
2018-02-13T08:43:51.990Z,99801.71
2018-02-13T08:46:19.577Z,99800.88
2018-02-13T08:48:47.209Z,99787.47
2018-02-13T08:51:14.779Z,99802.13
2018-02-13T08:53:42.351Z,99793.98
2018-02-13T08:56:09.984Z,99795.59
2018-02-13T08:58:37.567Z,99797.41
2018-02-13T09:01:05.162Z,99799.52
2018-02-13T09:03:32.784Z,99798.47
2018-02-13T09:06:00.383Z,99793.25
2018-02-13T09:08:27.955Z,99790.28
2018-02-13T09:10:55.572Z,99790.73
2018-02-13T09:13:23.149Z,99791.56
2018-02-13T09:15:50.721Z,99789.16
2018-02-13T09:18:18.350Z,99799.40
2018-02-13T09:20:46.000Z,99795.02
2018-02-13T09:23:13.586Z,99796.98
2018-02-13T09:25:41.198Z,99791.82
2018-02-13T09:28:08.785Z,99785.79
2018-02-13T09:30:36.355Z,99783.33
2018-02-13T09:33:03.959Z,99769.74
2018-02-13T09:35:31.533Z,99766.23
2018-02-13T09:37:59.103Z,99760.95
2018-02-13T09:40:26.718Z,99757.37
2018-02-13T09:42:54.290Z,99747.48
2018-02-13T09:45:21.884Z,99748.17
2018-02-13T09:47:49.487Z,99745.48
2018-02-13T09:50:17.051Z,99735.53
2018-02-13T09:52:44.651Z,99732.61
2018-02-13T09:55:12.508Z,99721.13
2018-02-13T09:57:40.103Z,99710.63
2018-02-13T10:00:07.727Z,99707.69
2018-02-13T10:02:35.341Z,99701.23
2018-02-13T10:05:02.945Z,99696.71
2018-02-13T10:07:30.518Z,99689.94
2018-02-13T10:09:58.144Z,99685.41
2018-02-13T10:12:25.713Z,99680.22
2018-02-13T10:14:53.293Z,99677.78
2018-02-13T10:17:20.958Z,99664.88
2018-02-13T10:19:48.604Z,99666.91
2018-02-13T10:22:16.243Z,99668.22
2018-02-13T10:24:43.853Z,99663.02
2018-02-13T10:27:12.370Z,99650.33
2018-02-13T10:29:39.944Z,99655.86
2018-02-13T10:32:07.647Z,99646.41
2018-02-13T10:34:35.222Z,99635.14
2018-02-13T10:37:02.807Z,99630.33
2018-02-13T10:39:30.448Z,99626.42
2018-02-13T10:41:58.038Z,99623.22
2018-02-13T10:44:25.625Z,99621.59
2018-02-13T10:46:53.242Z,99624.69
2018-02-13T10:49:20.857Z,99606.14
2018-02-13T10:51:48.441Z,99625.47
2018-02-13T10:54:16.064Z,99620.52
2018-02-13T10:56:43.651Z,99616.43
2018-02-13T10:59:11.230Z,99614.84
2018-02-13T11:01:38.863Z,99616.19
2018-02-13T11:04:06.411Z,99604.87
2018-02-13T11:06:33.968Z,99594.70
2018-02-13T11:09:01.575Z,99590.91
2018-02-13T11:11:29.157Z,99606.52
2018-02-13T11:13:56.756Z,99585.47
2018-02-13T11:16:24.363Z,99577.81
2018-02-13T11:18:51.936Z,99589.83
2018-02-13T11:21:19.497Z,99587.42
2018-02-13T11:23:47.151Z,99582.50
2018-02-13T11:26:14.831Z,99549.89
2018-02-13T11:28:42.385Z,99579.53
2018-02-13T11:31:10.007Z,99581.71
2018-02-13T11:33:37.641Z,99572.25
2018-02-13T11:36:05.223Z,99579.36
2018-02-13T11:38:32.887Z,99580.63
2018-02-13T11:41:00.476Z,99575.64
2018-02-13T11:43:28.044Z,99574.34
2018-02-13T11:45:55.658Z,99563.42
2018-02-13T11:48:23.216Z,99545.25
2018-02-13T11:50:50.780Z,99545.13
2018-02-13T11:53:18.382Z,99541.29
2018-02-13T11:55:45.946Z,99535.61
2018-02-13T11:58:13.509Z,99541.62
2018-02-13T12:00:41.121Z,99540.31
2018-02-13T12:03:08.671Z,99541.05
2018-02-13T12:05:36.260Z,99538.86
2018-02-13T12:08:03.862Z,99546.97
2018-02-13T12:10:31.437Z,99543.78
2018-02-13T12:12:59.029Z,99542.25
2018-02-13T12:15:26.640Z,99542.70
2018-02-13T12:17:54.230Z,99526.49
2018-02-13T12:20:21.787Z,99528.47
2018-02-13T12:22:49.379Z,99511.44
2018-02-13T12:25:28.633Z,99520.65
2018-02-13T12:27:56.265Z,99504.28
2018-02-13T12:30:23.849Z,99527.59
2018-02-13T12:32:51.414Z,99516.17
2018-02-13T12:35:19.026Z,99505.62
2018-02-13T12:37:46.575Z,99497.83
2018-02-13T12:40:14.162Z,99490.33
2018-02-13T12:42:41.760Z,99522.92
2018-02-13T12:45:09.351Z,99494.69
2018-02-13T12:47:36.913Z,99504.97
2018-02-13T12:50:05.430Z,99494.06
2018-02-13T12:52:32.993Z,99499.59
2018-02-13T12:55:00.559Z,99496.20
2018-02-13T12:57:28.159Z,99491.26
2018-02-13T12:59:55.712Z,99513.97
2018-02-13T13:02:23.383Z,99501.80
2018-02-13T13:04:51.052Z,99491.89
2018-02-13T13:07:18.626Z,99502.27
2018-02-13T13:09:46.196Z,99508.09
2018-02-13T13:12:13.781Z,99493.47
2018-02-13T13:14:41.340Z,99494.47
2018-02-13T13:17:08.903Z,99492.91
2018-02-13T13:19:36.537Z,99486.22
2018-02-13T13:22:04.094Z,99504.97
2018-02-13T13:24:31.661Z,99476.09
2018-02-13T13:26:59.238Z,99479.58
2018-02-13T13:29:26.798Z,99477.00
2018-02-13T13:31:54.363Z,99470.02
2018-02-13T13:34:22.024Z,99484.01
2018-02-13T13:36:49.578Z,99477.64
2018-02-13T13:39:17.144Z,99476.56
2018-02-13T13:41:44.774Z,99468.03
2018-02-13T13:44:12.335Z,99490.55
2018-02-13T13:46:39.888Z,99470.91
2018-02-13T13:49:07.487Z,99474.97
2018-02-13T13:51:35.079Z,99486.56
2018-02-13T13:54:02.661Z,99477.91
2018-02-13T13:56:30.246Z,99469.04
2018-02-13T13:58:57.806Z,99470.47
2018-02-13T14:01:25.398Z,99475.18
2018-02-13T14:03:52.997Z,99474.13
2018-02-13T14:06:20.561Z,99465.23
2018-02-13T14:08:49.096Z,99461.75
2018-02-13T14:11:16.676Z,99495.81
2018-02-13T14:13:44.305Z,99469.63
2018-02-13T14:16:12.075Z,99476.45
2018-02-13T14:18:39.697Z,99464.78
2018-02-13T14:21:07.693Z,99464.22
2018-02-13T14:23:35.246Z,99458.40
2018-02-13T14:26:02.864Z,99459.55
2018-02-13T14:28:30.544Z,99452.55
2018-02-13T14:30:58.261Z,99445.59
2018-02-13T14:33:25.854Z,99447.09
2018-02-13T14:35:53.429Z,99445.90
2018-02-13T14:38:21.031Z,99432.25
2018-02-13T14:40:48.630Z,99442.62
2018-02-13T14:43:16.187Z,99432.07
2018-02-13T14:45:43.817Z,99443.03
2018-02-13T14:48:11.462Z,99426.83
2018-02-13T14:50:39.023Z,99456.36
2018-02-13T14:53:06.640Z,99425.58
2018-02-13T14:55:34.242Z,99423.73
2018-02-13T14:58:01.832Z,99426.92
2018-02-13T15:00:29.391Z,99428.55
2018-02-13T15:02:56.978Z,99430.48
2018-02-13T15:05:24.530Z,99426.06
2018-02-13T15:07:52.100Z,99415.93
2018-02-13T15:10:19.720Z,99443.36
2018-02-13T15:12:47.314Z,99416.95
2018-02-13T15:15:17.239Z,99418.97
2018-02-13T15:17:47.277Z,99424.80
2018-02-13T15:20:14.839Z,99417.52
2018-02-13T15:22:42.394Z,99412.13
2018-02-13T15:25:09.996Z,99405.41
2018-02-13T15:27:37.568Z,99412.67
2018-02-13T15:30:05.150Z,99411.73
2018-02-13T15:32:32.811Z,99416.86
2018-02-13T15:35:00.376Z,99406.59
2018-02-13T15:37:27.909Z,99394.47
2018-02-13T15:39:55.520Z,99399.19
2018-02-13T15:42:23.117Z,99399.11
2018-02-13T15:44:50.685Z,99394.38
2018-02-13T15:47:18.864Z,99392.89
2018-02-13T15:49:46.458Z,99390.32
2018-02-13T15:52:14.011Z,99389.50
2018-02-13T15:54:41.623Z,99387.78
2018-02-13T15:57:09.182Z,99378.27
2018-02-13T15:59:36.769Z,99409.64
2018-02-13T16:02:04.376Z,99387.92
2018-02-13T16:04:31.945Z,99384.44
2018-02-13T16:06:59.521Z,99393.07
2018-02-13T16:09:27.123Z,99380.98
2018-02-13T16:11:54.670Z,99389.98
2018-02-13T16:14:22.220Z,99381.19
2018-02-13T16:16:49.834Z,99387.95
2018-02-13T16:19:17.404Z,99371.66
2018-02-13T16:21:44.964Z,99369.41
2018-02-13T16:24:12.546Z,99385.09
2018-02-13T16:26:40.207Z,99388.48
2018-02-13T16:29:07.957Z,99378.41
2018-02-13T16:31:35.609Z,99399.65
2018-02-13T16:34:03.177Z,99382.22
2018-02-13T16:36:30.721Z,99378.43
2018-02-13T16:38:58.321Z,99384.47
2018-02-13T16:41:25.908Z,99383.27
2018-02-13T16:43:53.466Z,99399.34
2018-02-13T16:46:21.313Z,99391.14
2018-02-13T16:48:48.884Z,99407.44
2018-02-13T16:51:16.439Z,99373.08
2018-02-13T16:53:44.036Z,99394.52
2018-02-13T16:56:11.582Z,99392.69
2018-02-13T16:58:39.158Z,99399.27
2018-02-13T17:01:06.785Z,99390.63
2018-02-13T17:03:34.382Z,99393.00
2018-02-13T17:06:01.939Z,99389.00
2018-02-13T17:08:29.531Z,99368.19
2018-02-13T17:10:57.111Z,99374.13
2018-02-13T17:13:24.708Z,99375.77
2018-02-13T17:15:52.293Z,99372.48
2018-02-13T17:18:19.855Z,99371.76
2018-02-13T17:20:47.422Z,99372.98
2018-02-13T17:23:15.012Z,99362.41
2018-02-13T17:25:42.612Z,99356.56
2018-02-13T17:28:10.163Z,99346.20
2018-02-13T17:30:37.775Z,99357.48
2018-02-13T17:33:05.357Z,99349.90
2018-02-13T17:35:32.914Z,99345.16
2018-02-13T17:38:00.489Z,99346.98
2018-02-13T17:40:28.058Z,99345.84
2018-02-13T17:42:55.606Z,99341.76
2018-02-13T17:45:23.198Z,99344.83
2018-02-13T17:47:50.775Z,99341.62
2018-02-13T17:50:18.339Z,99340.00
2018-02-13T17:52:46.044Z,99346.37
2018-02-13T17:55:13.611Z,99342.47
2018-02-13T17:57:41.171Z,99347.16
2018-02-13T18:00:08.772Z,99336.91
2018-02-13T18:02:36.406Z,99326.86
2018-02-13T18:05:03.971Z,99329.31
2018-02-13T18:07:31.605Z,99325.64
2018-02-13T18:09:59.185Z,99320.30
2018-02-13T18:12:26.747Z,99320.80
2018-02-13T18:14:54.342Z,99325.40
2018-02-13T18:17:21.914Z,99328.73
2018-02-13T18:19:49.481Z,99317.39
2018-02-13T18:22:17.076Z,99309.63
2018-02-13T18:24:44.669Z,99310.64
2018-02-13T18:27:12.227Z,99307.98
2018-02-13T18:29:39.832Z,99303.95
2018-02-13T18:32:07.377Z,99297.17
2018-02-13T18:34:34.924Z,99284.61
2018-02-13T18:37:02.757Z,99287.47
2018-02-13T18:39:30.331Z,99292.35
2018-02-13T18:41:57.913Z,99292.34
2018-02-13T18:44:25.513Z,99290.91
2018-02-13T18:46:53.082Z,99292.92
2018-02-13T18:49:20.674Z,99282.84
2018-02-13T18:51:49.284Z,99283.98
2018-02-13T18:54:17.826Z,99277.72
2018-02-13T18:56:45.900Z,99279.55
2018-02-13T18:59:13.502Z,99257.81
2018-02-13T19:01:41.070Z,99272.73
2018-02-13T19:04:08.654Z,99274.84
2018-02-13T19:06:36.266Z,99277.40
2018-02-13T19:09:06.303Z,99271.24
2018-02-13T19:11:37.122Z,99275.47
2018-02-13T19:14:08.181Z,99267.50
2018-02-13T19:16:38.843Z,99263.39
2018-02-13T19:19:09.964Z,99261.64
2018-02-13T19:21:37.745Z,99259.12
2018-02-13T19:24:05.430Z,99262.58
2018-02-13T19:26:33.045Z,99260.50
2018-02-13T19:29:00.625Z,99260.20
2018-02-13T19:31:28.203Z,99261.34
2018-02-13T19:33:56.973Z,99260.30
2018-02-13T19:36:25.526Z,99264.61
2018-02-13T19:38:54.269Z,99245.11
2018-02-13T19:41:23.682Z,99254.48
2018-02-13T19:43:52.463Z,99245.95
2018-02-13T19:46:21.448Z,99243.06
2018-02-13T19:48:49.952Z,99244.25
2018-02-13T19:51:19.167Z,99240.66
2018-02-13T19:53:48.144Z,99251.45
2018-02-13T19:56:17.036Z,99249.95
2018-02-13T19:58:45.453Z,99239.55
2018-02-13T20:01:14.430Z,99228.23
2018-02-13T20:03:42.899Z,99237.87
2018-02-13T20:06:11.112Z,99229.48
2018-02-13T20:08:39.441Z,99230.94
2018-02-13T20:11:08.282Z,99236.98
2018-02-13T20:13:37.428Z,99224.08
2018-02-13T20:16:06.366Z,99224.75
2018-02-13T20:18:35.422Z,99219.86
2018-02-13T20:21:04.196Z,99221.30
2018-02-13T20:23:32.843Z,99212.48
2018-02-13T20:26:01.862Z,99198.92
2018-02-13T20:28:30.192Z,99192.24
2018-02-13T20:30:58.041Z,99186.07
2018-02-13T20:33:25.981Z,99170.29
2018-02-13T20:35:53.645Z,99171.52
2018-02-13T20:38:21.637Z,99171.92
2018-02-13T20:40:50.075Z,99167.30
2018-02-13T20:43:18.996Z,99169.96
2018-02-13T20:45:46.843Z,99155.77
2018-02-13T20:48:14.919Z,99169.14
2018-02-13T20:50:43.312Z,99158.46
2018-02-13T20:53:11.569Z,99170.00
2018-02-13T20:55:39.153Z,99165.03
2018-02-13T20:58:06.955Z,99162.58
2018-02-13T21:00:34.917Z,99167.50
2018-02-13T21:03:02.530Z,99172.00
2018-02-13T21:05:30.214Z,99160.20
2018-02-13T21:07:57.760Z,99159.27
2018-02-13T21:10:25.353Z,99160.38
2018-02-13T21:12:52.969Z,99150.86
2018-02-13T21:15:20.535Z,99155.55
2018-02-13T21:17:48.176Z,99158.98
2018-02-13T21:20:15.747Z,99159.45
2018-02-13T21:22:43.320Z,99133.74
2018-02-13T21:25:11.157Z,99139.45
2018-02-13T21:27:38.707Z,99140.53
2018-02-13T21:30:06.589Z,99146.28
2018-02-13T21:32:34.192Z,99142.97
2018-02-13T21:35:01.838Z,99139.36
2018-02-13T21:37:29.410Z,99135.61
2018-02-13T21:39:57.027Z,99127.48
2018-02-13T21:42:24.576Z,99115.28
2018-02-13T21:44:52.177Z,99120.22
2018-02-13T21:47:19.766Z,99121.03
2018-02-13T21:49:47.404Z,99134.89
2018-02-13T21:52:14.940Z,99137.58
2018-02-13T21:54:42.526Z,99128.36
2018-02-13T21:57:10.095Z,99131.36
2018-02-13T21:59:37.659Z,99120.62
2018-02-13T22:02:05.226Z,99125.48
2018-02-13T22:04:32.763Z,99118.30
2018-02-13T22:07:00.316Z,99118.13
2018-02-13T22:09:27.913Z,99111.58
2018-02-13T22:11:55.460Z,99108.77
2018-02-13T22:14:23.085Z,99099.38
2018-02-13T22:16:50.669Z,99093.52
2018-02-13T22:19:18.245Z,99093.92
2018-02-13T22:21:45.875Z,99085.84
2018-02-13T22:24:13.467Z,99090.89
2018-02-13T22:26:41.037Z,99082.72
2018-02-13T22:29:08.571Z,99086.19
2018-02-13T22:31:36.148Z,99081.42
2018-02-13T22:34:03.716Z,99074.81
2018-02-13T22:36:31.266Z,99063.67
2018-02-13T22:38:58.846Z,99065.01
2018-02-13T22:41:26.445Z,99058.72
2018-02-13T22:43:54.059Z,99048.39
2018-02-13T22:46:21.651Z,99060.64
2018-02-13T22:48:49.223Z,99049.27
2018-02-13T22:51:16.831Z,99046.20
2018-02-13T22:53:44.457Z,99039.55
2018-02-13T22:56:12.010Z,99033.80
2018-02-13T22:58:39.733Z,99047.16
2018-02-13T23:01:07.364Z,99041.90
2018-02-13T23:03:34.919Z,99026.28
2018-02-13T23:06:02.560Z,99034.29
2018-02-13T23:08:30.177Z,99024.22
2018-02-13T23:10:57.757Z,99026.48
2018-02-13T23:13:25.324Z,99031.55
2018-02-13T23:15:52.934Z,99036.81
2018-02-13T23:18:20.530Z,99032.80
2018-02-13T23:20:48.108Z,99023.24
2018-02-13T23:23:15.717Z,99037.76
2018-02-13T23:25:43.302Z,99022.89
2018-02-13T23:28:10.868Z,99033.50
2018-02-13T23:30:38.458Z,99031.70
2018-02-13T23:33:06.016Z,99022.12
2018-02-13T23:35:33.573Z,99012.13
2018-02-13T23:38:01.165Z,99029.38
2018-02-13T23:40:29.736Z,99026.19
2018-02-13T23:42:58.280Z,99028.40
2018-02-13T23:45:28.248Z,99031.26
2018-02-13T23:47:58.949Z,99018.92
2018-02-13T23:50:28.316Z,99032.94
2018-02-13T23:52:58.507Z,99018.36
2018-02-13T23:55:28.505Z,99016.20
2018-02-13T23:57:56.203Z,99011.39
